Accueil
METAR-TAF:

METAR-TAF

Aéroports :

Aéroport d'Ostende-Bruges

Ostende, Belgique

latitude: 51-12N, longitude: 002-52E, altitude: 4 m

Observation

Le bulletin a été fait il y a 21 minutes, à 01:20 UTC
Vent 10 kt de nord/nord-est
Température 6°C
Humidité 87%
Pression 1028 hPa
Visibilité 10 km ou plus
pas de nuages en-dessous de 1500 mètres et pas de cumulonimbus.

METAR: EBOS 170120Z 03010KT CAVOK 06/04 Q1028 NOSIG

Heure: 03:41 (01:41 UTC)

Prévision

Le bulletin a été fait il y a 2 heures et 26 minutes, à 23:15 UTC
Prévision valable du 17 à 00 UTC au 18 à 06 UTC
Vent 9 kt de nord/nord-est
Visibilité 10 km ou plus
pas de nuages en-dessous de 1500 mètres et pas de cumulonimbus.

TAF: EBOS 162315Z 1700/1806 02009KT CAVOK

Observations et prévisions météorologiques de plus de 4000 aéroports (messages METAR et TAF).

Les stations disponibles sont représentées par des disques jaunes et rouges sur la carte.

Passer la souris dessus pour voir le nom de la station.

Cliquer dessus pour voir les observations et prévisions météorologiques.

Pour changer de carte: cliquez sur les boutons verts avec une croix noire pour zoomer, sur le bouton vert avec un tiret pour effectuer un zoom arrière, ou sur les flèches vertes pour les cartes adjacentes.


METAR-TAF: